createdAt,value
2023-03-21T00:03:33.785Z,9.97
2023-03-21T00:07:35.048Z,6.47
2023-03-21T00:11:36.815Z,9.50
2023-03-21T00:15:48.337Z,6.17
2023-03-21T00:19:44.298Z,5.60
2023-03-21T00:23:46.159Z,6.70
2023-03-21T00:28:01.435Z,6.40
2023-03-21T00:31:50.261Z,8.30
2023-03-21T00:36:01.776Z,6.37
2023-03-21T00:39:55.732Z,8.70
2023-03-21T00:43:56.852Z,10.87
2023-03-21T00:47:58.273Z,6.40
2023-03-21T00:52:14.700Z,7.10
2023-03-21T00:56:04.348Z,6.30
2023-03-21T01:00:09.305Z,6.13
2023-03-21T01:04:12.377Z,6.73
2023-03-21T01:08:25.380Z,8.13
2023-03-21T01:12:19.018Z,7.40
2023-03-21T01:16:20.332Z,8.40
2023-03-21T01:20:21.530Z,6.83
2023-03-21T01:24:22.717Z,6.77
2023-03-21T01:28:28.062Z,7.10
2023-03-21T01:32:29.214Z,5.70
2023-03-21T01:36:30.419Z,7.03
2023-03-21T01:40:31.629Z,8.13
2023-03-21T01:44:36.487Z,5.80
2023-03-21T01:48:41.421Z,6.03
2023-03-21T01:52:42.678Z,6.73
2023-03-21T01:56:46.329Z,6.40
2023-03-21T02:00:50.043Z,6.40
2023-03-21T02:04:53.854Z,6.20
2023-03-21T02:08:56.306Z,7.47
2023-03-21T02:13:03.188Z,6.10
2023-03-21T02:17:20.181Z,5.67
2023-03-21T02:21:52.374Z,11.40
2023-03-21T02:26:12.669Z,6.20
2023-03-21T02:30:49.078Z,6.50
2023-03-21T02:34:51.662Z,7.00
2023-03-21T02:39:17.242Z,7.60
2023-03-21T02:43:31.309Z,6.17
2023-03-21T02:47:52.034Z,9.00
2023-03-21T02:52:00.235Z,6.17
2023-03-21T02:56:01.335Z,7.00
2023-03-21T03:00:15.855Z,9.30
2023-03-21T03:04:18.686Z,6.80
2023-03-21T03:08:53.070Z,10.07
2023-03-21T03:12:48.808Z,8.37
2023-03-21T03:16:59.925Z,7.83
2023-03-21T03:21:14.005Z,6.53
2023-03-21T03:25:27.204Z,6.20
2023-03-21T03:29:24.436Z,6.00
2023-03-21T03:33:27.227Z,5.73
2023-03-21T03:37:32.188Z,9.20
2023-03-21T03:42:03.101Z,5.27
2023-03-21T03:45:50.203Z,9.50
2023-03-21T03:49:58.007Z,12.50
2023-03-21T03:54:09.212Z,6.57
2023-03-21T03:58:19.859Z,8.60
2023-03-21T04:02:14.079Z,7.40
2023-03-21T04:06:16.301Z,10.93
2023-03-21T04:10:18.758Z,6.60
2023-03-21T04:14:20.224Z,6.40
2023-03-21T04:18:23.005Z,8.70
2023-03-21T04:22:24.978Z,8.27
2023-03-21T04:26:28.040Z,10.03
2023-03-21T04:30:31.511Z,8.70
2023-03-21T04:34:32.661Z,8.30
2023-03-21T04:38:33.950Z,7.33
2023-03-21T04:42:35.172Z,8.57
2023-03-21T04:46:37.224Z,9.30
2023-03-21T04:50:38.658Z,7.13
2023-03-21T04:54:39.861Z,8.97
2023-03-21T04:58:41.724Z,6.50
2023-03-21T05:02:42.982Z,7.53
2023-03-21T05:06:45.676Z,9.53
2023-03-21T05:10:46.828Z,8.23
2023-03-21T05:14:48.133Z,6.40
2023-03-21T05:18:50.000Z,6.30
2023-03-21T05:22:51.159Z,7.10
2023-03-21T05:26:54.211Z,6.00
2023-03-21T05:30:55.337Z,8.40
2023-03-21T05:34:56.518Z,5.77
2023-03-21T05:38:57.571Z,7.77
2023-03-21T05:42:58.738Z,9.57
2023-03-21T05:46:59.902Z,8.10
2023-03-21T05:51:02.474Z,9.13
2023-03-21T05:55:05.106Z,6.97
2023-03-21T05:59:06.557Z,8.43
2023-03-21T06:03:07.715Z,9.40
2023-03-21T06:07:08.805Z,10.40
2023-03-21T06:11:16.276Z,8.37
2023-03-21T06:15:17.644Z,8.87
2023-03-21T06:19:20.889Z,8.80
2023-03-21T06:23:22.129Z,8.93
2023-03-21T06:27:23.600Z,7.67
2023-03-21T06:31:25.873Z,8.70
2023-03-21T06:35:27.043Z,7.40
2023-03-21T06:39:28.158Z,9.37
2023-03-21T06:43:29.542Z,12.70
2023-03-21T06:47:30.739Z,7.27
2023-03-21T06:51:31.946Z,9.67
2023-03-21T06:55:33.083Z,10.27
2023-03-21T06:59:35.286Z,11.60
2023-03-21T07:03:37.147Z,9.13
2023-03-21T07:07:38.924Z,12.20
2023-03-21T07:11:40.681Z,18.40
2023-03-21T07:15:42.213Z,9.10
2023-03-21T07:19:44.898Z,9.43
2023-03-21T07:23:46.874Z,9.73
2023-03-21T07:27:48.176Z,9.33
2023-03-21T07:31:49.389Z,8.03
2023-03-21T07:35:51.649Z,11.20
2023-03-21T07:39:52.785Z,9.27
2023-03-21T07:43:53.872Z,11.70
2023-03-21T07:47:55.136Z,9.00
2023-03-21T07:51:56.441Z,10.60
2023-03-21T07:55:57.572Z,8.40
2023-03-21T07:59:58.816Z,11.07
2023-03-21T08:03:59.878Z,12.23
2023-03-21T08:08:01.545Z,7.70
2023-03-21T08:12:04.732Z,9.50
2023-03-21T08:16:07.446Z,11.63
2023-03-21T08:20:11.380Z,11.80
2023-03-21T08:24:12.592Z,14.33
2023-03-21T08:28:13.721Z,9.67
2023-03-21T08:32:17.897Z,8.20
2023-03-21T08:36:20.369Z,13.47
2023-03-21T08:40:21.634Z,13.43
2023-03-21T08:44:24.573Z,17.33
2023-03-21T08:48:25.790Z,9.57
2023-03-21T08:52:27.193Z,8.40
2023-03-21T08:56:28.414Z,9.97
2023-03-21T09:00:29.676Z,7.93
2023-03-21T09:04:31.164Z,9.60
2023-03-21T09:08:32.309Z,6.97
2023-03-21T09:12:33.985Z,6.43
2023-03-21T09:16:35.339Z,7.30
2023-03-21T09:20:37.688Z,7.60
2023-03-21T09:24:40.874Z,7.70
2023-03-21T09:28:42.136Z,5.10
2023-03-21T09:32:46.018Z,7.47
2023-03-21T09:36:47.874Z,8.13
2023-03-21T09:41:02.015Z,5.23
2023-03-21T09:45:12.925Z,7.90
2023-03-21T09:49:21.288Z,8.60
2023-03-21T09:53:30.253Z,8.77
2023-03-21T09:57:41.378Z,6.37
2023-03-21T10:01:45.347Z,7.07
2023-03-21T10:05:47.815Z,10.00
2023-03-21T10:09:51.297Z,9.83
2023-03-21T10:14:08.578Z,8.80
2023-03-21T10:18:19.799Z,10.37
2023-03-21T10:22:20.948Z,7.53
2023-03-21T10:26:26.577Z,11.13
2023-03-21T10:30:31.518Z,6.97
2023-03-21T10:34:39.392Z,10.70
2023-03-21T10:38:44.691Z,6.93
2023-03-21T10:42:45.846Z,7.70
2023-03-21T10:46:56.156Z,8.97
2023-03-21T10:50:57.574Z,6.13
2023-03-21T10:55:28.135Z,8.73
2023-03-21T10:59:36.226Z,12.87
2023-03-21T11:03:41.820Z,6.97
2023-03-21T11:07:43.275Z,11.37
2023-03-21T11:11:57.535Z,8.80
2023-03-21T11:16:05.029Z,10.00
2023-03-21T11:20:10.756Z,8.03
2023-03-21T11:24:17.832Z,7.53
2023-03-21T11:28:22.699Z,10.37
2023-03-21T11:32:33.198Z,9.87
2023-03-21T11:36:40.098Z,8.90
2023-03-21T11:40:45.190Z,8.43
2023-03-21T11:44:46.635Z,10.20
2023-03-21T11:48:48.213Z,6.80
2023-03-21T11:52:55.757Z,7.63
2023-03-21T11:57:12.594Z,8.50
2023-03-21T12:01:18.359Z,8.20
2023-03-21T12:05:23.406Z,9.47
2023-03-21T12:09:40.616Z,9.27
2023-03-21T12:13:48.587Z,7.60
2023-03-21T12:18:16.705Z,5.80
2023-03-21T12:22:39.706Z,7.60
2023-03-21T12:27:03.055Z,5.53
2023-03-21T12:31:14.169Z,7.97
2023-03-21T12:35:31.389Z,6.50
2023-03-21T12:39:35.667Z,5.47
2023-03-21T12:43:50.131Z,4.13
2023-03-21T12:47:55.451Z,6.83
2023-03-21T12:52:03.399Z,4.93
2023-03-21T12:56:08.541Z,5.80
2023-03-21T13:00:16.944Z,7.30
2023-03-21T13:04:34.237Z,5.07
2023-03-21T13:08:48.460Z,6.30
2023-03-21T13:13:28.886Z,6.83
2023-03-21T13:17:34.138Z,6.90
2023-03-21T13:22:00.482Z,5.80
2023-03-21T13:26:02.440Z,9.17
2023-03-21T13:30:10.762Z,9.33
2023-03-21T13:34:13.111Z,8.80
2023-03-21T13:38:18.237Z,6.77
2023-03-21T13:42:25.536Z,8.43
2023-03-21T13:46:54.251Z,7.07
2023-03-21T13:51:05.876Z,8.33
2023-03-21T13:55:13.876Z,9.63
2023-03-21T13:59:21.017Z,7.67
2023-03-21T14:03:23.972Z,33.87
2023-03-21T14:07:31.879Z,11.80
2023-03-21T14:11:34.280Z,8.73
2023-03-21T14:15:49.741Z,7.90
2023-03-21T14:19:45.796Z,9.93
2023-03-21T14:23:47.034Z,9.63
2023-03-21T14:27:52.112Z,9.40
2023-03-21T14:31:55.434Z,9.97
2023-03-21T14:35:58.846Z,12.00
2023-03-21T14:40:05.173Z,12.20
2023-03-21T14:44:15.860Z,8.83
2023-03-21T14:48:17.268Z,9.70
2023-03-21T14:52:31.064Z,10.33
2023-03-21T14:56:34.943Z,12.93
2023-03-21T15:00:36.783Z,10.30
2023-03-21T15:04:37.967Z,9.33
2023-03-21T15:08:39.840Z,9.63
2023-03-21T15:12:44.822Z,12.00
2023-03-21T15:16:46.929Z,8.60
2023-03-21T15:20:50.435Z,11.90
2023-03-21T15:24:55.162Z,15.07
2023-03-21T15:28:58.364Z,13.33
2023-03-21T15:33:08.950Z,11.60
2023-03-21T15:37:16.690Z,10.60
2023-03-21T15:41:24.909Z,13.10
2023-03-21T15:45:28.500Z,12.23
2023-03-21T15:49:32.482Z,17.93
2023-03-21T15:53:37.467Z,12.13
2023-03-21T15:57:44.316Z,13.13
2023-03-21T16:01:48.168Z,13.17
2023-03-21T16:06:16.083Z,13.77
2023-03-21T16:10:30.858Z,12.13
2023-03-21T16:14:32.069Z,11.13
2023-03-21T16:18:33.742Z,22.47
2023-03-21T16:22:35.168Z,14.97
2023-03-21T16:26:38.744Z,21.43
2023-03-21T16:30:40.090Z,15.53
2023-03-21T16:34:42.117Z,16.27
2023-03-21T16:38:45.376Z,15.97
2023-03-21T16:42:46.541Z,17.17
2023-03-21T16:46:47.754Z,15.00
2023-03-21T16:50:49.121Z,13.77
2023-03-21T16:54:50.474Z,13.53
2023-03-21T16:58:54.530Z,14.17
2023-03-21T17:02:58.452Z,12.63
2023-03-21T17:07:01.170Z,11.90
2023-03-21T17:11:04.413Z,14.47
2023-03-21T17:15:07.277Z,14.70
2023-03-21T17:19:18.097Z,18.00
2023-03-21T17:23:19.606Z,15.50
2023-03-21T17:27:20.823Z,16.50
2023-03-21T17:31:24.175Z,12.03
2023-03-21T17:35:26.199Z,14.67
2023-03-21T17:39:27.948Z,15.23
2023-03-21T17:43:29.601Z,15.10
2023-03-21T17:47:32.059Z,20.20
2023-03-21T17:51:33.227Z,30.00
2023-03-21T17:55:35.082Z,24.40
2023-03-21T17:59:36.445Z,28.80
2023-03-21T18:03:38.341Z,19.80
2023-03-21T18:08:13.258Z,15.03
2023-03-21T18:11:47.426Z,19.80
2023-03-21T18:15:49.952Z,15.33
2023-03-21T18:19:51.108Z,16.77
2023-03-21T18:23:52.280Z,15.43
2023-03-21T18:28:10.139Z,15.83
2023-03-21T18:32:06.495Z,14.30
2023-03-21T18:36:06.988Z,14.60
2023-03-21T18:40:07.410Z,16.97
2023-03-21T18:44:15.764Z,15.63
2023-03-21T18:48:13.789Z,14.50
2023-03-21T18:52:16.155Z,13.93
2023-03-21T19:00:22.796Z,16.33
2023-03-21T19:04:30.021Z,16.47
2023-03-21T19:08:27.002Z,18.10
2023-03-21T19:12:28.364Z,16.30
2023-03-21T19:16:32.697Z,15.73
2023-03-21T19:20:33.357Z,12.90
2023-03-21T19:24:34.658Z,11.40
2023-03-21T19:28:35.824Z,13.57
2023-03-21T19:32:37.083Z,15.90
2023-03-21T19:36:38.277Z,14.57
2023-03-21T19:40:41.045Z,15.33
2023-03-21T19:44:42.416Z,16.80
2023-03-21T19:48:44.889Z,17.57
2023-03-21T19:52:46.435Z,16.90
2023-03-21T19:56:48.346Z,25.17
2023-03-21T20:00:49.807Z,20.83
2023-03-21T20:04:51.162Z,24.57
2023-03-21T20:09:37.587Z,28.27
2023-03-21T20:12:56.409Z,20.30
2023-03-21T20:16:57.809Z,25.40
2023-03-21T20:20:58.927Z,19.53
2023-03-21T20:25:02.016Z,17.27
2023-03-21T20:29:46.958Z,16.30
2023-03-21T20:33:08.293Z,16.40
2023-03-21T20:37:11.403Z,15.67
2023-03-21T20:41:12.729Z,14.30
2023-03-21T20:45:16.612Z,17.27
2023-03-21T20:49:22.353Z,16.47
2023-03-21T20:53:23.584Z,17.40
2023-03-21T20:57:29.535Z,21.97
2023-03-21T21:01:31.207Z,19.93
2023-03-21T21:05:34.819Z,16.90
2023-03-21T21:09:36.203Z,16.40
2023-03-21T21:13:37.991Z,16.30
2023-03-21T21:18:05.513Z,15.93
2023-03-21T21:21:42.156Z,17.90
2023-03-21T21:25:43.323Z,17.90
2023-03-21T21:29:46.526Z,18.33
2023-03-21T21:33:49.387Z,22.07
2023-03-21T21:37:50.862Z,18.80
2023-03-21T21:41:52.025Z,14.93
2023-03-21T21:45:53.827Z,15.83
2023-03-21T21:49:55.037Z,15.17
2023-03-21T21:53:56.200Z,15.87
2023-03-21T21:57:57.378Z,14.50
2023-03-21T22:01:58.550Z,14.53
2023-03-21T22:06:01.347Z,19.77
2023-03-21T22:10:03.273Z,17.33
2023-03-21T22:14:04.465Z,15.43
2023-03-21T22:18:06.414Z,16.23
2023-03-21T22:22:07.678Z,16.73
2023-03-21T22:26:09.867Z,14.90
2023-03-21T22:30:13.762Z,16.10
2023-03-21T22:34:15.363Z,16.10
2023-03-21T22:38:19.038Z,18.10
2023-03-21T22:42:20.392Z,16.03
2023-03-21T22:46:21.612Z,15.50
2023-03-21T22:50:22.705Z,16.47
2023-03-21T22:54:23.872Z,14.93
2023-03-21T22:58:25.090Z,16.63
2023-03-21T23:02:26.819Z,15.53
2023-03-21T23:06:27.973Z,14.70
2023-03-21T23:10:29.140Z,14.40
2023-03-21T23:14:30.292Z,16.83
2023-03-21T23:18:33.061Z,14.37
2023-03-21T23:22:35.490Z,12.90
2023-03-21T23:26:37.042Z,13.10
2023-03-21T23:30:38.598Z,14.77
2023-03-21T23:34:40.343Z,12.70
2023-03-21T23:38:42.318Z,9.83
2023-03-21T23:42:43.576Z,10.83
2023-03-21T23:46:44.817Z,12.50
2023-03-21T23:50:46.070Z,7.90
2023-03-21T23:54:47.264Z,12.37
2023-03-21T23:58:49.364Z,9.80
